Latest Weather Observations for Groote Eylandt Airport

IDD60801

Issued at 2:01 pm CST Thursday 5 May 2016 (issued every 30 minutes, with the page automatically refreshed every 10 minutes)

About weather observations | Map of weather stations | Latest weather observations for NT | Other Formats
Station Details ID: 014518 Name: GROOTE EYLANDT AIRPORT Lat: -13.97 Lon: 136.46 Height: 13.7 m
Data from the previous 72 hours. | See also: Recent months at Groote Eylandt Airport
Date/Time
CST
Temp
°C
App
Temp
°C
Dew
Point
Rel
Hum
%
Delta-T
°C
Wind Press
QNH
hPa
Press
MSL
hPa
Rain
since 9 am
mm
Dir
 
Spd
km/h
Gust
km/h
Spd
kts
Gust
kts
05/02:00pm 31.0 33.9 25.1 71 4.2 E 19 28 10 15 1010.1 1010.0 1.6
05/01:30pm 29.9 33.3 24.1 71 4.0 ESE 13 22 7 12 1010.5 1010.4 1.6
05/01:00pm 30.5 31.4 24.6 70 4.1 E 28 39 15 21 1011.1 1011.0 1.6
05/12:52pm 30.6 31.7 25.0 72 3.9 E 28 48 15 26 1011.3 1011.2 1.6
05/12:30pm 30.9 35.0 26.4 77 3.2 E 17 20 9 11 1011.4 1011.3 1.6
05/12:00pm 31.8 37.6 27.7 79 3.0 ESE 13 24 7 13 1011.5 1011.4 1.6
05/11:30am 30.4 37.1 27.4 84 2.2 SE 7 15 4 8 1012.2 1012.1 1.6
05/11:06am 27.5 32.8 24.9 86 1.8 SE 6 9 3 5 1012.7 1012.6 1.6
05/11:00am 26.8 31.3 23.9 84 2.0 ESE 7 15 4 8 1012.7 1012.6 1.4
05/10:51am 26.8 27.8 23.5 82 2.3 E 24 35 13 19 1012.9 1012.8 1.4
05/10:30am 30.3 35.7 27.1 83 2.3 ESE 13 20 7 11 1012.8 1012.7 0.2
05/10:00am 30.8 36.8 28.0 85 2.0 E 13 19 7 10 1012.9 1012.8 0.0
05/09:30am 30.0 36.9 27.6 87 1.7 SE 7 11 4 6 1013.0 1012.9 0.0
05/09:00am 29.1 35.6 27.1 89 1.4 ESE 7 13 4 7 1013.0 1012.9 0.4
05/08:30am 27.4 34.0 25.8 91 1.1 SE 2 7 1 4 1012.8 1012.7 0.4
05/08:00am 25.5 30.5 23.9 91 1.1 SE 4 6 2 3 1012.5 1012.4 0.4
05/07:30am 24.4 29.6 22.8 91 1.1 CALM 0 6 0 3 1012.1 1012.0 0.4
05/07:00am 23.7 28.1 22.1 91 1.1 ESE 2 6 1 3 1011.9 1011.8 0.4
05/06:30am 23.3 27.8 21.6 90 1.1 CALM 0 7 0 4 1011.7 1011.6 0.4
05/06:00am 23.4 28.0 21.7 90 1.1 CALM 0 0 0 0 1011.5 1011.4 0.4
05/05:30am 23.6 28.3 21.9 90 1.1 CALM 0 0 0 0 1011.4 1011.3 0.4
05/05:00am 23.4 28.0 21.7 90 1.1 CALM 0 0 0 0 1011.4 1011.3 0.4
05/04:30am 23.3 27.7 21.4 89 1.3 CALM 0 0 0 0 1011.3 1011.2 0.4
05/04:00am 23.6 28.2 21.7 89 1.3 CALM 0 0 0 0 1011.1 1011.0 0.4
05/03:30am 23.6 28.2 21.7 89 1.3 CALM 0 0 0 0 1011.2 1011.1 0.4
05/03:00am 23.5 27.9 21.4 88 1.4 CALM 0 0 0 0 1011.4 1011.3 0.4
05/02:30am 23.7 28.2 21.6 88 1.4 CALM 0 0 0 0 1011.4 1011.3 0.4
05/02:00am 23.6 28.1 21.5 88 1.4 CALM 0 0 0 0 1011.6 1011.5 0.4
05/01:30am 23.8 28.3 21.5 87 1.5 CALM 0 0 0 0 1011.6 1011.5 0.4
05/01:00am 23.8 28.3 21.5 87 1.5 CALM 0 0 0 0 1011.6 1011.5 0.4
05/12:30am 24.1 28.6 21.6 86 1.7 CALM 0 0 0 0 1012.1 1012.0 0.4
05/12:00am 24.4 29.1 21.9 86 1.7 CALM 0 0 0 0 1012.5 1012.4 0.4
 
Date/Time
CST
Temp
°C
App
Temp
°C
Dew
Point
Rel
Hum
%
Delta-T
°C
Wind Press
QNH
hPa
Press
MSL
hPa
Rain
since 9 am
mm
Dir
 
Spd
km/h
Gust
km/h
Spd
kts
Gust
kts
04/11:30pm 24.3 28.8 21.6 85 1.8 CALM 0 0 0 0 1012.5 1012.4 0.4
04/11:00pm 24.4 29.0 21.7 85 1.8 CALM 0 0 0 0 1012.4 1012.3 0.4
04/10:30pm 24.5 29.0 21.6 84 1.9 CALM 0 0 0 0 1012.5 1012.4 0.4
04/10:00pm 25.0 29.7 21.9 83 2.1 CALM 0 0 0 0 1012.7 1012.6 0.4
04/09:30pm 25.0 29.1 21.5 81 2.3 ESE 2 6 1 3 1012.7 1012.6 0.4
04/09:00pm 25.4 30.0 21.7 80 2.5 CALM 0 0 0 0 1012.7 1012.6 0.4
04/08:30pm 26.3 30.1 22.4 79 2.6 E 6 7 3 4 1012.3 1012.2 0.4
04/08:00pm 26.6 30.4 22.4 78 2.8 ESE 6 9 3 5 1011.9 1011.8 0.4
04/07:30pm 27.1 30.5 22.7 77 3.0 ESE 9 11 5 6 1011.3 1011.2 0.4
04/07:00pm 27.5 31.4 22.9 76 3.1 ESE 7 11 4 6 1011.0 1010.9 0.4
04/06:30pm 28.1 32.2 23.2 74 3.4 ESE 7 9 4 5 1010.7 1010.6 0.4
04/06:00pm 29.1 33.1 23.8 73 3.7 SE 9 15 5 8 1010.5 1010.4 0.4
04/05:30pm 29.8 34.5 24.0 71 4.0 SE 6 9 3 5 1010.4 1010.3 0.4
04/05:00pm 30.1 34.2 24.0 70 4.2 ESE 9 15 5 8 1010.1 1010.0 0.4
04/04:30pm 30.5 34.9 24.4 70 4.3 ESE 9 15 5 8 1009.8 1009.7 0.4
04/04:00pm 30.2 35.0 24.4 71 4.0 ESE 7 13 4 7 1009.5 1009.4 0.4
04/03:30pm 30.5 35.0 24.6 70 4.1 ESE 9 15 5 8 1009.6 1009.5 0.4
04/03:00pm 29.9 34.2 24.3 72 3.9 SE 9 15 5 8 1009.9 1009.8 0.4
04/02:30pm 30.0 34.4 24.4 72 3.9 SE 9 15 5 8 1009.9 1009.8 0.4
04/02:00pm 30.4 35.2 24.5 70 4.1 S 7 13 4 7 1010.0 1009.9 0.4
04/01:30pm 31.6 35.9 25.5 70 4.3 SE 13 19 7 10 1010.3 1010.2 0.4
04/01:00pm 32.3 37.1 26.8 73 4.0 E 15 22 8 12 1010.7 1010.6 0.4
04/12:30pm 29.7 33.8 24.6 74 3.6 SE 11 20 6 11 1011.4 1011.3 0.4
04/12:00pm 32.6 38.3 27.1 73 4.0 ESE 11 17 6 9 1011.8 1011.7 0.0
04/11:30am 31.9 37.9 26.9 75 3.6 SE 9 15 5 8 1012.2 1012.1 0.0
04/11:00am 31.3 36.7 26.6 76 3.4 SE 11 17 6 9 1012.9 1012.8 0.0
04/10:30am 32.2 38.5 27.9 78 3.1 ESE 11 15 6 8 1013.1 1013.0 0.0
04/10:00am 31.8 38.3 28.1 81 2.7 E 11 15 6 8 1013.2 1013.1 0.0
04/09:30am 31.2 37.0 28.2 84 2.2 ESE 15 20 8 11 1013.3 1013.2 0.0
04/09:00am 30.3 36.6 27.9 87 1.7 ESE 11 17 6 9 1013.1 1013.0 3.4
04/08:30am 29.3 36.1 27.5 90 1.3 ESE 7 11 4 6 1013.0 1012.9 3.4
04/08:00am 27.6 34.7 26.0 91 1.1 CALM 0 0 0 0 1012.6 1012.5 3.4
04/07:30am 25.5 31.0 24.1 92 1.0 ESE 2 6 1 3 1012.4 1012.3 3.4
04/07:00am 24.5 29.8 23.1 92 0.9 CALM 0 0 0 0 1012.1 1012.0 3.4
04/06:30am 24.4 29.6 22.8 91 1.1 CALM 0 0 0 0 1011.7 1011.6 3.4
04/06:00am 24.7 30.0 23.1 91 1.1 CALM 0 0 0 0 1011.3 1011.2 3.4
04/05:30am 24.7 30.0 23.1 91 1.1 CALM 0 0 0 0 1011.2 1011.1 3.4
04/05:00am 25.0 30.1 23.4 91 1.1 ESE 2 6 1 3 1011.0 1010.9 3.4
04/04:30am 24.9 29.2 23.3 91 1.1 S 6 13 3 7 1010.9 1010.8 3.4
04/04:00am 24.9 30.3 23.3 91 1.1 CALM 0 0 0 0 1010.8 1010.7 3.4
04/03:30am 24.9 30.3 23.3 91 1.1 CALM 0 0 0 0 1011.0 1010.9 3.4
04/03:00am 24.9 30.2 23.1 90 1.2 CALM 0 0 0 0 1011.2 1011.1 3.4
04/02:30am 25.0 30.4 23.2 90 1.2 CALM 0 0 0 0 1011.3 1011.2 3.4
04/02:00am 25.2 30.7 23.4 90 1.2 CALM 0 0 0 0 1011.6 1011.5 3.4
04/01:30am 25.3 30.9 23.5 90 1.2 CALM 0 6 0 3 1011.7 1011.6 3.4
04/01:00am 25.1 30.5 23.3 90 1.2 CALM 0 0 0 0 1012.0 1011.9 3.4
04/12:30am 25.2 29.9 23.4 90 1.2 ESE 4 7 2 4 1012.4 1012.3 3.4
04/12:00am 25.3 30.4 23.4 89 1.3 ESE 2 6 1 3 1012.5 1012.4 3.4
 
Date/Time
CST
Temp
°C
App
Temp
°C
Dew
Point
Rel
Hum
%
Delta-T
°C
Wind Press
QNH
hPa
Press
MSL
hPa
Rain
since 9 am
mm
Dir
 
Spd
km/h
Gust
km/h
Spd
kts
Gust
kts
03/11:30pm 25.3 30.8 23.4 89 1.3 CALM 0 0 0 0 1012.7 1012.6 3.4
03/11:00pm 25.6 31.3 23.7 89 1.3 CALM 0 0 0 0 1012.9 1012.8 3.4
03/10:30pm 25.7 31.3 23.6 88 1.4 CALM 0 0 0 0 1012.9 1012.8 3.4
03/10:00pm 25.9 31.6 23.8 88 1.4 CALM 0 0 0 0 1013.1 1013.0 3.4
03/09:30pm 26.0 31.8 23.9 88 1.4 CALM 0 0 0 0 1013.3 1013.2 3.4
03/09:00pm 26.0 30.5 23.7 87 1.6 ESE 6 7 3 4 1013.3 1013.2 3.4
03/08:30pm 26.3 32.1 24.0 87 1.6 CALM 0 0 0 0 1013.0 1012.9 3.4
03/08:00pm 26.3 32.0 23.8 86 1.7 CALM 0 0 0 0 1012.6 1012.5 3.4
03/07:30pm 26.6 32.5 24.1 86 1.7 CALM 0 0 0 0 1012.2 1012.1 3.4
03/07:00pm 27.2 33.0 24.5 85 1.9 WSW 2 6 1 3 1011.9 1011.8 3.4
03/06:30pm 27.4 33.7 24.7 85 1.9 CALM 0 0 0 0 1011.4 1011.3 3.4
03/06:00pm 27.9 34.3 24.9 84 2.1 CALM 0 0 0 0 1011.1 1011.0 3.4
03/05:30pm 28.0 34.3 24.8 83 2.2 CALM 0 0 0 0 1010.7 1010.6 3.4
03/05:00pm 28.2 34.5 24.8 82 2.4 CALM 0 0 0 0 1010.1 1010.0 3.4
03/04:30pm 28.5 34.6 25.1 82 2.4 W 2 7 1 4 1009.8 1009.7 3.4
03/04:00pm 29.1 35.0 25.3 80 2.7 NNE 4 9 2 5 1009.8 1009.7 3.4
03/03:30pm 27.6 31.4 24.0 81 2.5 NE 11 17 6 9 1009.9 1009.8 3.4
03/03:29pm 27.5 31.2 23.9 81 2.5 ENE 11 17 6 9 1009.9 1009.8 3.2
03/03:00pm 28.6 32.6 24.4 78 2.9 W 11 17 6 9 1009.8 1009.7 1.4
03/02:50pm 28.7 31.9 24.3 77 3.1 WSW 15 22 8 12 1009.7 1009.6 1.0
03/02:30pm 30.6 34.8 25.4 74 3.7 W 13 20 7 11 1009.9 1009.8 0.0
03/02:00pm 31.7 37.4 26.5 74 3.7 W 9 17 5 9 1010.5 1010.4 0.0
03/01:30pm 31.0 35.9 25.8 74 3.7 SW 11 17 6 9 1011.0 1010.9 0.0
03/01:00pm 30.8 36.1 25.8 74 3.6 SW 9 15 5 8 1011.8 1011.7 0.0
03/12:30pm 30.9 35.8 25.9 74 3.6 WSW 11 17 6 9 1012.2 1012.1 0.0
03/12:00pm 30.8 35.9 26.1 76 3.4 W 11 15 6 8 1012.6 1012.5 0.0
03/11:30am 31.9 38.5 26.9 75 3.6 NNE 6 9 3 5 1013.0 1012.9 0.0
03/11:00am 31.5 38.2 27.4 79 3.0 ENE 7 9 4 5 1013.3 1013.2 0.0
03/10:30am 30.9 37.9 27.5 82 2.5 SE 6 9 3 5 1013.6 1013.5 0.0
03/10:00am 30.8 38.8 27.8 84 2.2 SE 2 6 1 3 1013.7 1013.6 0.0
03/09:30am 30.4 36.9 27.6 85 2.0 NE 9 13 5 7 1013.7 1013.6 0.0
03/09:00am 29.5 36.3 27.3 88 1.6 E 6 9 3 5 1013.6 1013.5 0.2
03/08:30am 28.5 36.1 26.7 90 1.3 CALM 0 0 0 0 1013.3 1013.2 0.2
03/08:00am 26.8 32.2 25.2 91 1.1 E 6 7 3 4 1013.0 1012.9 0.2
03/07:30am 25.1 29.6 23.7 92 1.0 E 6 7 3 4 1012.7 1012.6 0.2
03/07:00am 24.0 27.7 22.6 92 0.9 ESE 7 9 4 5 1012.5 1012.4 0.2
03/06:30am 23.8 28.6 22.2 91 1.1 CALM 0 0 0 0 1012.1 1012.0 0.2
03/06:00am 23.9 28.8 22.3 91 1.1 CALM 0 0 0 0 1011.7 1011.6 0.0
03/05:30am 23.9 28.8 22.3 91 1.1 CALM 0 0 0 0 1011.2 1011.1 0.0
03/05:00am 24.1 28.0 22.5 91 1.1 ESE 6 7 3 4 1011.1 1011.0 0.0
03/04:30am 24.3 28.3 22.7 91 1.1 ESE 6 7 3 4 1011.1 1011.0 0.0
03/04:00am 24.4 29.1 22.7 90 1.1 E 2 6 1 3 1011.1 1011.0 0.0
03/03:30am 24.6 29.4 22.8 90 1.2 E 2 6 1 3 1011.2 1011.1 0.0
03/03:00am 24.6 28.6 22.8 90 1.2 E 6 7 3 4 1011.0 1010.9 0.0
03/02:30am 24.6 28.4 22.8 90 1.2 ESE 7 9 4 5 1010.9 1010.8 0.0
03/02:00am 24.4 29.4 22.5 89 1.3 CALM 0 0 0 0 1011.1 1011.0 0.0
03/01:30am 24.7 29.9 22.8 89 1.3 CALM 0 0 0 0 1011.3 1011.2 0.0
03/01:00am 25.0 30.3 23.1 89 1.3 CALM 0 0 0 0 1011.5 1011.4 0.0
03/12:30am 25.0 30.2 22.9 88 1.4 CALM 0 0 0 0 1012.0 1011.9 0.0
03/12:00am 25.1 29.2 23.0 88 1.4 E 6 7 3 4 1012.4 1012.3 0.0
 
Date/Time
CST
Temp
°C
App
Temp
°C
Dew
Point
Rel
Hum
%
Delta-T
°C
Wind Press
QNH
hPa
Press
MSL
hPa
Rain
since 9 am
mm
Dir
 
Spd
km/h
Gust
km/h
Spd
kts
Gust
kts
02/11:30pm 25.4 29.7 23.3 88 1.4 ESE 6 7 3 4 1012.7 1012.6 0.0
02/11:00pm 25.5 30.9 23.2 87 1.6 CALM 0 0 0 0 1012.9 1012.8 0.0
02/10:30pm 25.6 30.9 23.1 86 1.7 CALM 0 0 0 0 1013.2 1013.1 0.0
02/10:00pm 25.8 31.2 23.3 86 1.7 CALM 0 0 0 0 1013.4 1013.3 0.0
02/09:30pm 26.4 32.1 23.7 85 1.9 CALM 0 0 0 0 1013.1 1013.0 0.0
02/09:00pm 26.6 32.3 23.7 84 2.0 CALM 0 0 0 0 1013.2 1013.1 0.0
02/08:30pm 26.7 32.3 23.6 83 2.1 CALM 0 0 0 0 1013.1 1013.0 0.0
02/08:00pm 27.0 32.7 23.7 82 2.3 CALM 0 0 0 0 1012.8 1012.7 0.0
02/07:30pm 27.6 32.7 24.0 81 2.5 ESE 4 6 2 3 1012.4 1012.3 0.0
02/07:00pm 28.1 33.0 24.3 80 2.6 ENE 6 7 3 4 1011.9 1011.8 0.0
02/06:30pm 28.6 33.5 24.6 79 2.8 ENE 7 9 4 5 1011.4 1011.3 0.0
02/06:00pm 29.1 33.8 24.9 78 2.9 E 9 13 5 7 1011.1 1011.0 0.0
02/05:30pm 29.6 34.4 25.1 77 3.2 E 9 11 5 6 1011.0 1010.9 0.0
02/05:00pm 29.9 34.5 25.4 77 3.2 E 11 15 6 8 1010.7 1010.6 0.0
02/04:30pm 30.1 34.5 25.6 77 3.2 E 13 22 7 12 1010.1 1010.0 0.0
02/04:00pm 30.4 34.3 26.1 78 3.1 ENE 17 22 9 12 1009.9 1009.8 0.0
02/03:30pm 29.3 34.2 25.3 79 2.8 ENE 9 13 5 7 1010.1 1010.0 0.0
02/03:00pm 28.3 32.6 24.3 79 2.8 E 9 15 5 8 1010.3 1010.2 0.0
02/02:30pm 27.3 29.7 22.9 77 3.0 ENE 15 20 8 11 1010.4 1010.3 0.0
02/02:05pm 29.4 32.2 24.9 77 3.2 ENE 19 35 10 19 1010.5 1010.4 0.0

Other Formats:

Comma delimited format used in spreadsheet applications
http://www.bom.gov.au/fwo/IDD60801/IDD60801.94153.axf

JavaScript Object Notation format (JSON) in row-major order
http://www.bom.gov.au/fwo/IDD60801/IDD60801.94153.json